LEGE/GRO METAR and TAF weather

Enter ICAO airport designator
Station Type Date Time Source
LEGE METAR 2022/01/26 14:00 UTC NOAA

LEGE 261400Z 18005KT 140V200 CAVOK 16/01 Q1028


Station Type Date Time Source
LEGE Decoded METAR 2022/01/26 14:00 UTC NOAA

Gerona / Costa Brava, Spain (LEGE) 41-54N 002-46E 129M
Jan 26, 2022 - 09:00 AM EST / 2022.01.26 1400 UTC
Wind: from the S (180 degrees) at 6 MPH (5 KT) (direction variable):0
Visibility: greater than 7 mile(s):0
Temperature: 60 F (16 C)
Dew Point: 33 F (1 C)
Relative Humidity: 36%
Pressure (altimeter): 30.36 in. Hg (1028 hPa)
ob: LEGE 261400Z 18005KT 140V200 CAVOK 16/01 Q1028
cycle: 14

Station Type Date Time Source
LEGE TAF 2022/01/26 12:27 UTC NOAA

TAF LEGE 261100Z 2612/2712 VRB04KT 9000 FEW040 TX14/2614Z TN01/2706Z

Example: see airport list